Terminal Aerodrome Forecast
Issued by NWS

Home | Current Version | Previous Version | Text Only | Print | Product List | Glossary On
Versions: 1 2 3 4 5 6 7 8 9 10 11 12 13
000
FTUS44 KLZK 301100
TAFHRO
TAF
KHRO 301132Z 3012/3112 15003KT P6SM VCSH SCT080 OVC120
     FM301800 24007KT P6SM VCSH OVC050
      TEMPO 3020/3024 6SM -SHRA BR OVC040
     FM310000 23003KT 5SM -SHRA BR OVC035
      TEMPO 3108/3112 2SM SHRA BR OVC025=

USA.gov is the U.S. government's official web portal to all federal, state and local government web resources and services.